createdAt,value
2022-09-15T00:00:44.575Z,55.03
2022-09-15T00:05:51.849Z,55.14
2022-09-15T00:10:59.089Z,54.99
2022-09-15T00:16:06.256Z,55.02
2022-09-15T00:21:13.470Z,54.96
2022-09-15T00:26:20.714Z,54.89
2022-09-15T00:31:27.973Z,54.97
2022-09-15T00:36:35.120Z,54.98
2022-09-15T00:41:42.301Z,55.04
2022-09-15T00:47:09.387Z,54.96
2022-09-15T00:51:56.729Z,54.42
2022-09-15T00:57:03.921Z,54.70
2022-09-15T01:02:11.132Z,54.78
2022-09-15T01:07:18.263Z,54.65
2022-09-15T01:12:25.539Z,54.86
2022-09-15T01:17:32.772Z,54.89
2022-09-15T01:22:40.001Z,54.90
2022-09-15T01:27:47.231Z,54.99
2022-09-15T01:32:54.408Z,55.05
2022-09-15T01:38:01.624Z,55.05
2022-09-15T01:43:08.824Z,55.09
2022-09-15T01:48:16.043Z,55.12
2022-09-15T01:53:23.253Z,54.96
2022-09-15T01:58:30.485Z,54.88
2022-09-15T02:03:37.897Z,54.89
2022-09-15T02:08:45.272Z,54.85
2022-09-15T02:13:52.319Z,54.79
2022-09-15T02:18:59.576Z,54.73
2022-09-15T02:24:06.799Z,54.74
2022-09-15T02:29:14.010Z,54.70
2022-09-15T02:34:21.226Z,54.73
2022-09-15T02:39:28.447Z,54.70
2022-09-15T02:44:35.741Z,54.67
2022-09-15T02:49:42.895Z,54.51
2022-09-15T02:54:50.162Z,54.33
2022-09-15T02:59:57.446Z,54.31
2022-09-15T03:05:04.750Z,54.25
2022-09-15T03:10:11.983Z,54.20
2022-09-15T03:15:19.313Z,54.20
2022-09-15T03:20:26.451Z,54.28
2022-09-15T03:25:33.759Z,54.45
2022-09-15T03:30:41.054Z,54.50
2022-09-15T03:35:52.912Z,54.71
2022-09-15T03:41:00.213Z,54.67
2022-09-15T03:46:12.646Z,54.64
2022-09-15T03:51:21.784Z,54.83
2022-09-15T03:56:29.069Z,54.72
2022-09-15T04:01:36.362Z,54.70
2022-09-15T04:06:43.534Z,54.72
2022-09-15T04:11:50.782Z,54.83
2022-09-15T04:16:58.016Z,54.85
2022-09-15T04:22:05.218Z,54.83
2022-09-15T04:27:12.437Z,54.98
2022-09-15T04:32:19.657Z,54.95
2022-09-15T04:37:26.913Z,54.89
2022-09-15T04:42:34.847Z,54.93
2022-09-15T04:47:42.168Z,54.96
2022-09-15T04:52:49.295Z,54.86
2022-09-15T04:57:56.542Z,54.79
2022-09-15T05:03:03.792Z,54.85
2022-09-15T05:08:10.993Z,54.87
2022-09-15T05:13:18.222Z,54.90
2022-09-15T05:18:25.464Z,55.03
2022-09-15T05:23:32.653Z,55.09
2022-09-15T05:28:39.832Z,54.96
2022-09-15T05:33:47.147Z,54.86
2022-09-15T05:38:54.316Z,54.92
2022-09-15T05:44:01.469Z,54.81
2022-09-15T05:49:08.689Z,54.86
2022-09-15T05:54:15.897Z,54.84
2022-09-15T05:59:23.088Z,54.76
2022-09-15T06:04:30.355Z,54.67
2022-09-15T06:09:37.588Z,54.72
2022-09-15T06:14:44.853Z,54.57
2022-09-15T06:19:52.310Z,54.45
2022-09-15T06:24:59.403Z,54.41
2022-09-15T06:30:06.672Z,54.41
2022-09-15T06:35:13.983Z,54.39
2022-09-15T06:40:21.218Z,54.56
2022-09-15T06:45:28.417Z,54.56
2022-09-15T06:50:35.700Z,54.33
2022-09-15T06:55:42.903Z,54.41
2022-09-15T07:00:50.123Z,54.60
2022-09-15T07:05:57.428Z,54.61
2022-09-15T07:11:04.610Z,54.60
2022-09-15T07:16:11.952Z,54.70
2022-09-15T07:21:19.065Z,54.54
2022-09-15T07:26:26.214Z,54.64
2022-09-15T07:31:33.481Z,54.92
2022-09-15T07:36:40.582Z,54.77
2022-09-15T07:41:47.718Z,54.22
2022-09-15T07:46:54.901Z,54.02
2022-09-15T07:52:02.057Z,54.58
2022-09-15T07:57:09.232Z,54.64
2022-09-15T08:02:16.516Z,54.83
2022-09-15T08:07:23.669Z,55.05
2022-09-15T08:12:30.842Z,55.10
2022-09-15T08:17:38.025Z,55.27
2022-09-15T08:22:45.310Z,55.32
2022-09-15T08:27:52.405Z,55.08
2022-09-15T08:32:59.717Z,55.16
2022-09-15T08:38:07.002Z,54.74
2022-09-15T08:43:14.193Z,54.58
2022-09-15T08:48:21.400Z,54.61
2022-09-15T08:53:28.627Z,55.44
2022-09-15T08:58:35.782Z,55.32
2022-09-15T09:03:42.963Z,55.40
2022-09-15T09:08:50.265Z,55.37
2022-09-15T09:13:57.333Z,55.66
2022-09-15T09:19:04.518Z,55.54
2022-09-15T09:24:11.828Z,55.66
2022-09-15T09:29:18.958Z,56.89
2022-09-15T09:34:26.140Z,57.33
2022-09-15T09:39:33.475Z,57.63
2022-09-15T09:44:40.557Z,57.28
2022-09-15T09:49:47.807Z,57.44
2022-09-15T09:54:55.053Z,57.24
2022-09-15T10:00:02.239Z,57.24
2022-09-15T10:05:09.553Z,57.40
2022-09-15T10:10:16.710Z,57.16
2022-09-15T10:15:23.949Z,57.13
2022-09-15T10:20:31.111Z,57.82
2022-09-15T10:26:00.230Z,57.70
2022-09-15T10:30:45.467Z,58.27
2022-09-15T10:35:52.652Z,58.31
2022-09-15T10:40:59.975Z,57.81
2022-09-15T10:46:07.157Z,57.94
2022-09-15T10:51:14.241Z,57.56
2022-09-15T10:56:21.543Z,57.59
2022-09-15T11:01:28.715Z,57.54
2022-09-15T11:06:35.900Z,57.48
2022-09-15T11:11:43.127Z,57.60
2022-09-15T11:16:50.313Z,57.43
2022-09-15T11:21:57.506Z,57.56
2022-09-15T11:27:04.765Z,57.50
2022-09-15T11:32:11.950Z,57.53
2022-09-15T11:37:19.197Z,57.93
2022-09-15T11:42:26.444Z,57.08
2022-09-15T11:47:33.658Z,56.80
2022-09-15T11:52:40.863Z,56.70
2022-09-15T11:57:48.662Z,56.89
2022-09-15T12:02:55.933Z,56.64
2022-09-15T12:08:03.069Z,56.50
2022-09-15T12:13:10.339Z,56.77
2022-09-15T12:18:37.372Z,57.11
2022-09-15T12:23:24.788Z,56.52
2022-09-15T12:28:32.108Z,56.47
2022-09-15T12:33:39.219Z,56.40
2022-09-15T12:38:46.434Z,56.70
2022-09-15T12:43:53.732Z,56.64
2022-09-15T12:49:00.857Z,56.51
2022-09-15T12:54:08.033Z,56.20
2022-09-15T12:59:15.257Z,56.27
2022-09-15T13:04:22.558Z,56.16
2022-09-15T13:09:29.739Z,56.11
2022-09-15T13:14:36.965Z,56.33
2022-09-15T13:19:44.112Z,56.00
2022-09-15T13:24:51.322Z,56.01
2022-09-15T13:29:58.538Z,55.94
2022-09-15T13:35:14.292Z,55.73
2022-09-15T13:40:13.069Z,55.64
2022-09-15T13:45:20.199Z,55.57
2022-09-15T13:50:27.387Z,55.62
2022-09-15T13:55:34.582Z,55.80
2022-09-15T14:00:41.815Z,56.03
2022-09-15T14:05:49.043Z,55.95
2022-09-15T14:10:56.304Z,55.95
2022-09-15T14:16:03.693Z,55.97
2022-09-15T14:21:10.636Z,55.82
2022-09-15T14:26:17.856Z,55.69
2022-09-15T14:31:25.097Z,56.42
2022-09-15T14:36:32.279Z,56.15
2022-09-15T14:41:39.466Z,55.72
2022-09-15T14:46:46.752Z,55.86
2022-09-15T14:51:53.948Z,55.61
2022-09-15T14:57:01.146Z,55.63
2022-09-15T15:02:08.511Z,55.73
2022-09-15T15:07:15.556Z,55.55
2022-09-15T15:12:22.767Z,55.45
2022-09-15T15:17:30.014Z,55.63
2022-09-15T15:22:37.182Z,55.48
2022-09-15T15:27:44.398Z,54.98
2022-09-15T15:32:51.594Z,55.03
2022-09-15T15:37:58.790Z,55.13
2022-09-15T15:43:06.001Z,55.25
2022-09-15T15:48:13.214Z,55.26
2022-09-15T15:53:20.411Z,54.67
2022-09-15T15:58:27.605Z,54.15
2022-09-15T16:03:34.862Z,54.48
2022-09-15T16:08:42.030Z,54.43
2022-09-15T16:13:49.231Z,54.73
2022-09-15T16:18:56.462Z,54.98
2022-09-15T16:24:03.646Z,55.66
2022-09-15T16:29:10.885Z,56.03
2022-09-15T16:34:18.182Z,55.83
2022-09-15T16:39:25.337Z,55.60
2022-09-15T16:44:32.580Z,55.76
2022-09-15T16:49:39.786Z,55.74
2022-09-15T16:54:47.023Z,55.63
2022-09-15T16:59:55.335Z,55.69
2022-09-15T17:05:02.530Z,55.59
2022-09-15T17:10:09.726Z,55.60
2022-09-15T17:15:17.015Z,55.65
2022-09-15T17:20:24.247Z,55.56
2022-09-15T17:25:31.652Z,55.84
2022-09-15T17:30:39.236Z,55.81
2022-09-15T17:35:46.668Z,55.76
2022-09-15T17:40:54.031Z,55.84
2022-09-15T17:46:01.288Z,55.92
2022-09-15T17:51:08.478Z,55.66
2022-09-15T17:56:15.781Z,55.79
2022-09-15T18:01:23.340Z,55.83
2022-09-15T18:06:30.814Z,55.91
2022-09-15T18:11:38.406Z,55.93
2022-09-15T18:16:45.913Z,56.55
2022-09-15T18:21:53.662Z,56.56
2022-09-15T18:27:01.350Z,56.37
2022-09-15T18:32:09.065Z,56.20
2022-09-15T18:37:16.545Z,56.27
2022-09-15T18:42:27.190Z,56.14
2022-09-15T18:47:31.399Z,56.18
2022-09-15T18:52:39.142Z,56.21
2022-09-15T18:57:46.457Z,56.09
2022-09-15T19:02:53.928Z,56.13
2022-09-15T19:08:01.387Z,56.66
2022-09-15T19:13:08.630Z,56.80
2022-09-15T19:18:15.904Z,56.71
2022-09-15T19:23:23.494Z,56.62
2022-09-15T19:28:31.084Z,56.69
2022-09-15T19:33:38.694Z,56.63
2022-09-15T19:38:47.357Z,56.75
2022-09-15T19:43:55.055Z,56.54
2022-09-15T19:49:02.426Z,56.45
2022-09-15T19:54:09.890Z,56.34
2022-09-15T19:59:17.172Z,55.91
2022-09-15T20:05:06.247Z,55.75
2022-09-15T20:10:13.490Z,55.60
2022-09-15T20:15:20.662Z,55.63
2022-09-15T20:20:27.886Z,55.62
2022-09-15T20:25:35.116Z,55.32
2022-09-15T20:31:17.992Z,55.57
2022-09-15T20:36:25.230Z,55.61
2022-09-15T20:41:32.433Z,55.79
2022-09-15T20:46:39.591Z,55.84
2022-09-15T20:51:46.847Z,55.82
2022-09-15T20:56:54.185Z,56.00
2022-09-15T21:02:01.315Z,56.03
2022-09-15T21:07:08.505Z,56.05
2022-09-15T21:12:15.664Z,56.23
2022-09-15T21:17:22.843Z,55.98
2022-09-15T21:22:30.090Z,56.21
2022-09-15T21:27:37.331Z,56.34
2022-09-15T21:32:44.532Z,56.31
2022-09-15T21:37:51.801Z,56.02
2022-09-15T21:42:59.071Z,56.02
2022-09-15T21:48:06.292Z,55.89
2022-09-15T21:53:13.529Z,56.11
2022-09-15T21:58:20.775Z,56.09
2022-09-15T22:03:27.968Z,56.21
2022-09-15T22:08:35.238Z,56.09
2022-09-15T22:13:42.584Z,56.09
2022-09-15T22:18:49.779Z,56.34
2022-09-15T22:23:57.020Z,56.24
2022-09-15T22:29:04.299Z,56.31
2022-09-15T22:34:11.445Z,56.21
2022-09-15T22:39:18.666Z,56.12
2022-09-15T22:44:25.899Z,55.94
2022-09-15T22:49:33.084Z,55.86
2022-09-15T22:54:40.672Z,55.92
2022-09-15T22:59:47.871Z,55.82
2022-09-15T23:04:55.115Z,56.07
2022-09-15T23:10:02.391Z,56.09
2022-09-15T23:15:09.545Z,56.02
2022-09-15T23:20:16.726Z,56.09
2022-09-15T23:25:23.935Z,56.12
2022-09-15T23:30:31.180Z,56.07
2022-09-15T23:35:38.340Z,55.97
2022-09-15T23:40:45.576Z,56.08
2022-09-15T23:45:52.785Z,55.95
2022-09-15T23:51:00.054Z,55.96
2022-09-15T23:56:07.235Z,55.96
